Winnipeg / James Armstrong Richardson International Airport

CYWG

May 17, 2022

Time Code Weather Temp. Visibility Clouds Wind METAR/SPECI
1:00 am
V
46 °F 15 mi 13,000 ft 060°   060° 4 kt METAR CYWG 170600Z 06004KT 15SM BKN130 08/03 A3003 RMK AC7 SLP179
12:00 am
V
46 °F 15 mi 13,000 ft 070°   070° 6 kt METAR CYWG 170500Z 07006KT 15SM BKN130 08/03 A3002 RMK AC5 SLP177

May 16, 2022

Time Code Weather Temp. Visibility Clouds Wind METAR/SPECI
11:00 pm
V
48 °F 15 mi - 060°   060° 7 kt METAR CYWG 170400Z 06007KT 15SM SCT130 09/03 A3003 RMK AC4 SLP179
10:00 pm
V
48 °F 15 mi - 050°   050° 6 kt METAR CYWG 170300Z 05006KT 15SM SCT140 09/04 A3003 RMK AC4 SLP179
9:00 pm
V
50 °F 15 mi 15,000 ft 040°   040° 8 kt METAR CYWG 170200Z 04008KT 15SM BKN150 10/03 A3002 RMK AC5 SLP175
8:00 pm
V
52 °F 15 mi - 030°   030° 8 kt METAR CYWG 170100Z 03008KT 15SM FEW035 SCT160 SCT250 11/04 A3001 RMK SC1AC2CC1 CC TR SLP171
7:00 pm
V
55 °F 15 mi - 060°   060° 8 kt METAR CYWG 170000Z 06008KT 15SM FEW041 FEW150 SCT250 13/04 A3001 RMK SC2AC1CI1 CI TR SLP171
6:00 pm
V
57 °F 15 mi - 030°   030° 8 kt METAR CYWG 162300Z 03008KT 360V100 15SM SCT039 14/04 A3001 RMK SC4 SLP171 DENSITY ALT 800FT
5:00 pm
V
55 °F 15 mi - 030°   030° 10 kt METAR CYWG 162200Z 03010KT 360V070 15SM SCT037 13/04 A3001 RMK SC4 SLP171
4:00 pm
V
55 °F 15 mi - 040°   040° 6 kt METAR CYWG 162100Z 04006KT 15SM SCT035 13/04 A3001 RMK SC4 SLP173
3:00 pm
V
54 °F 15 mi 3,300 ft 360°   360° 5 kt METAR CYWG 162000Z 36005KT 340V040 15SM BKN033 12/03 A3002 RMK SC5 SLP176
2:00 pm
V
52 °F 15 mi 3,300 ft 330°   330° 7 kt METAR CYWG 161900Z 33007KT 300V110 15SM BKN033 11/03 A3002 RMK SC6 SLP178
1:00 pm
M
50 °F 15 mi 2,600 ft 010°   010° 8 kt METAR CYWG 161800Z 01008KT 320V030 15SM BKN026 10/02 A3003 RMK SC7 SLP178
12:00 pm
M
46 °F 15 mi 2,300 ft 350°   350° 5 kt METAR CYWG 161700Z 35005KT 330V050 15SM OVC023 08/02 A3003 RMK SC8 SLP180
11:00 am
M
46 °F 15 mi 1,900 ft 010°   010° 7 kt METAR CYWG 161600Z 01007KT 15SM BKN019 08/03 A3002 RMK SC7 SLP176
10:00 am
M
46 °F 15 mi 2,400 ft 340°   340° 8 15 kt METAR CYWG 161500Z 34008G15KT 15SM BKN024 08/03 A3001 RMK SC7 SLP173
9:00 am
M
45 °F 15 mi 2,100 ft 320°   320° 11 kt METAR CYWG 161400Z 32011KT 15SM BKN021 07/02 A3001 RMK SC7 SLP172
8:00 am
M
43 °F 15 mi 2,500 ft 320°   320° 9 kt METAR CYWG 161300Z 32009KT 15SM BKN025 06/03 A3000 RMK SC7 SLP167
7:00 am
M
39 °F 15 mi 2,800 ft 320°   320° 7 kt METAR CYWG 161200Z 32007KT 15SM BKN028 04/03 A2998 RMK SC5 SLP160
6:00 am
V
34 °F 15 mi - 300°   300° 4 kt METAR CYWG 161100Z 30004KT 15SM SCT029 01/01 A2997 RMK SC4 SLP160
5:00 am
V
34 °F 15 mi - 310°   310° 6 kt METAR CYWG 161000Z 31006KT 15SM SCT030 01/01 A2995 RMK SC4 SLP154
4:00 am
V
34 °F 15 mi - 290°   290° 5 kt METAR CYWG 160900Z 29005KT 15SM SKC 01/01 A2994 RMK SLP149
3:00 am
V
36 °F 15 mi - 280°   280° 5 kt METAR CYWG 160800Z 28005KT 15SM SKC 02/01 A2993 RMK SLP145
2:00 am
V
36 °F 15 mi - 340°   340° 5 kt METAR CYWG 160700Z 34005KT 15SM SKC 02/01 A2992 RMK SLP141
1:51 am
V
36 °F 15 mi - 310°   310° 5 kt METAR CYWG 160651Z 31005KT 290V010 15SM SKC 02/00 A2992 RMK SLP142
1:00 am
V
41 °F 15 mi - 350°   350° 7 kt METAR CYWG 160600Z 35007KT 15SM SKC 05/02 A2991 RMK SLP138
12:00 am
V
39 °F 15 mi - 280°   280° 8 kt METAR CYWG 160500Z 28008KT 15SM SKC 04/01 A2990 RMK SLP136

May 15, 2022

Time Code Weather Temp. Visibility Clouds Wind METAR/SPECI
11:00 pm
V
39 °F 15 mi - 280°   280° 7 kt METAR CYWG 160400Z 28007KT 15SM SKC 04/00 A2990 RMK SLP135
10:00 pm
V
48 °F 15 mi 5,600 ft 330°   330° 11 16 kt METAR CYWG 160300Z 33011G16KT 15SM BKN056 09/02 A2989 RMK SC5 SLP132
9:00 pm
V
50 °F 15 mi 4,800 ft 320°   320° 13 kt METAR CYWG 160200Z 32013KT 15SM BKN048 10/02 A2989 RMK SC7 SLP128
8:00 pm
V
54 °F 15 mi - 340°   340° 17 23 kt METAR CYWG 160100Z 34017G23KT 15SM SCT043 12/03 A2987 RMK SC3 SLP122
7:00 pm
V
55 °F 15 mi - 350°   350° 13 kt METAR CYWG 160000Z 35013KT 15SM FEW072 13/03 A2986 RMK AC2 SLP118 DENSITY ALT 800FT
6:00 pm
V
57 °F 15 mi - 340°   340° 17 kt METAR CYWG 152300Z 34017KT 15SM SCT057 14/03 A2985 RMK SC3 CU ASOCTD SLP115 DENSITY ALT 900FT
5:00 pm
V
55 °F 15 mi 4,900 ft 330°   330° 15 23 kt METAR CYWG 152200Z 33015G23KT 15SM BKN049 13/03 A2984 RMK SC5 SLP113 DENSITY ALT 900FT
4:00 pm
V
57 °F 15 mi - 320°   320° 16 24 kt METAR CYWG 152100Z 32016G24KT 15SM FEW042 SCT055 SCT250 14/04 A2984 RMK CF1SC3CC1 CF TR CC TR SLP114 DENSITY ALT 900FT
3:00 pm
V
55 °F 15 mi 3,900 ft 310°   310° 17 26 kt METAR CYWG 152000Z 31017G26KT 15SM BKN039 13/03 A2985 RMK SC6 SLP115 DENSITY ALT 800FT
2:00 pm
V
52 °F 15 mi 5,200 ft 330°   330° 19 kt METAR CYWG 151900Z 33019KT 15SM FEW035 BKN052 11/02 A2984 RMK CF2SC4 SLP114
1:00 pm
V
52 °F 15 mi 5,200 ft 310°   310° 16 21 kt METAR CYWG 151800Z 31016G21KT 15SM SCT033 BKN052 11/02 A2984 RMK CF3SC4 SLP112
12:00 pm
V
50 °F 15 mi 4,200 ft 330°   330° 12 19 kt METAR CYWG 151700Z 33012G19KT 15SM BKN042 10/03 A2983 RMK SC8 SLP110
11:00 am
V
52 °F 15 mi 4,200 ft 320°   320° 17 kt METAR CYWG 151600Z 32017KT 15SM BKN042 11/04 A2981 RMK SC7 CU ASOCTD SLP103
10:00 am
V
52 °F 15 mi 10,000 ft 300°   300° 15 kt METAR CYWG 151500Z 30015KT 15SM SCT051 BKN100 11/04 A2980 RMK SC4AC3 SLP100
9:00 am
V
50 °F 15 mi 6,000 ft 300°   300° 12 kt METAR CYWG 151400Z 30012KT 15SM BKN060 BKN100 10/04 A2981 RMK SC5AC2 SLP102
8:00 am
V
46 °F 15 mi 6,700 ft 270°   270° 12 kt METAR CYWG 151300Z 27012KT 15SM OVC067 08/04 A2980 RMK AC8 SLP101
7:00 am
V
45 °F 15 mi 5,800 ft 270°   270° 12 kt METAR CYWG 151200Z 27012KT 15SM BKN058 BKN069 07/03 A2979 RMK SC5AC2 SLP097
6:00 am
V
43 °F 15 mi - 250°   250° 10 kt METAR CYWG 151100Z 25010KT 15SM SCT070 06/03 A2979 RMK AC4 SLP096
5:00 am
V
43 °F 15 mi - 260°   260° 11 kt METAR CYWG 151000Z 26011KT 15SM SCT095 06/03 A2979 RMK AC3 SLP097
4:00 am
V
43 °F 15 mi - 250°   250° 10 kt METAR CYWG 150900Z 25010KT 15SM SKC 06/03 A2979 RMK SLP096
3:00 am
V
45 °F 15 mi - 280°   280° 11 kt METAR CYWG 150800Z 28011KT 15SM FEW170 07/03 A2979 RMK AC2 SLP098
2:00 am
V
46 °F 15 mi 14,000 ft 250°   250° 9 kt METAR CYWG 150700Z 25009KT 15SM SCT097 BKN140 08/04 A2978 RMK AC3AS2 SLP095
Older data

Download our app

Easy access to all aviation weather on your mobile phone and tablet.
With many features not available on the website, like offline support and a personal airport list.